Tannery, Wisconsin
Current Conditions -  °F | °C
As of 10:55 PM on Monday 22 Dec 2014 (Local Time) from KTKV Reporting Station
Light Snow Light Snow  
Wind Chill: 31°   Ceiling: 1000
Heat Index: 31°   Visibility: 2mi
Dew Point: 29°   Wind: 3mph
Humidity: 94%   Direction: 70°ENE
Pressure: 29.71"   Gusts: NA
Location:  45.5047°N, 89.7732°W
Report Text: KTKV 230455Z AUTO 07003KT 2SM -SN OVC010 M01/M01 A2971 RMK AO2 P0001 T10061015
Loading
Personal Weather Stations






























Interactive Weather Map New forecast layout! Learn more

10-Day Weather Forecast

Advertisements
Track Severe Weather on mobile